Time;durP1;ratioP1;P1;durP2;ratioP2;P2;SDS_P1;SDS_P2;PMS_P1;PMS_P2;Temp;Humidity;BMP_temperature;BMP_pressure;BME280_temperature;BME280_humidity;BME280_pressure;Samples;Min_cycle;Max_cycle;Signal;HPM_P1;HPM_P2
2021/12/05 00:19:33;;;;;;;3.73;1.90;;;6.30;99.90;;;;;;4998468;28;20763;-64
2021/12/05 00:24:56;;;;;;;20.30;6.90;;;6.70;99.90;;;;;;4984902;28;20475;-64
2021/12/05 00:27:28;;;;;;;5.10;2.87;;;6.80;99.90;;;;;;4996430;28;20476;-64
2021/12/05 00:30:23;;;;;;;3.50;1.80;;;6.70;99.90;;;;;;4997534;28;20905;-64
2021/12/05 00:55:02;;;;;;;4.67;2.57;;;6.80;99.90;;;;;;4996395;28;20470;-63
2021/12/05 01:02:47;;;;;;;4.00;1.60;;;6.90;99.90;;;;;;4997276;28;20401;-64
2021/12/05 01:13:36;;;;;;;5.83;1.97;;;6.80;99.90;;;;;;4980347;28;20453;-64
2021/12/05 01:16:07;;;;;;;3.47;1.90;;;6.60;99.90;;;;;;4980192;28;20909;-64
2021/12/05 01:18:34;;;;;;;4.53;1.80;;;6.60;99.90;;;;;;4995775;28;20929;-61
2021/12/05 01:21:07;;;;;;;3.33;1.60;;;6.50;99.90;;;;;;4997179;28;20400;-63
2021/12/05 01:26:14;;;;;;;6.53;1.67;;;6.20;99.90;;;;;;4996512;28;20411;-63
2021/12/05 01:29:30;;;;;;;3.43;1.63;;;6.20;99.90;;;;;;4996764;28;20464;-63
2021/12/05 01:34:20;;;;;;;8.90;1.97;;;6.30;99.90;;;;;;4996634;28;20460;-63
2021/12/05 01:50:44;;;;;;;2.97;2.07;;;6.10;99.90;;;;;;4995710;28;20424;-63
2021/12/05 02:36:22;;;;;;;5.33;1.57;;;5.60;99.90;;;;;;5013640;28;20425;-60
2021/12/05 02:41:21;;;;;;;5.00;1.60;;;5.50;99.90;;;;;;5013598;28;20387;-60
2021/12/05 02:43:55;;;;;;;2.20;1.53;;;5.60;99.90;;;;;;5012820;28;21445;-59
2021/12/05 02:46:24;;;;;;;2.67;1.60;;;5.60;99.90;;;;;;5013395;28;20461;-60
2021/12/05 02:48:52;;;;;;;3.17;1.63;;;5.70;99.90;;;;;;5013347;28;20462;-60
2021/12/05 02:51:24;;;;;;;1.40;1.20;;;5.70;99.90;;;;;;5012126;28;20446;-60
2021/12/05 02:54:02;;;;;;;2.23;1.30;;;;;;;;;;4995692;28;20411;-59
2021/12/05 02:56:31;;;;;;;2.93;1.57;;;5.80;99.90;;;;;;5013449;28;20391;-58
2021/12/05 02:59:00;;;;;;;2.00;1.70;;;5.70;99.90;;;;;;5012657;28;20449;-58
2021/12/05 03:01:36;;;;;;;3.73;1.70;;;5.80;99.90;;;;;;5012834;28;20488;-60
2021/12/05 03:04:02;;;;;;;2.03;1.83;;;5.70;99.90;;;;;;4993847;28;20388;-58
2021/12/05 03:06:32;;;;;;;2.60;1.60;;;5.90;99.90;;;;;;5000028;28;20462;-61
2021/12/05 03:09:02;;;;;;;5.63;1.67;;;5.80;99.90;;;;;;5005433;28;20945;-61
2021/12/05 03:11:29;;;;;;;2.63;1.20;;;5.80;99.90;;;;;;4995113;28;20376;-60
2021/12/05 03:13:56;;;;;;;2.43;1.40;;;5.80;99.90;;;;;;5012548;28;20391;-60
2021/12/05 03:16:23;;;;;;;3.80;2.10;;;5.80;99.90;;;;;;5013595;28;20399;-61
2021/12/05 03:18:49;;;;;;;4.30;1.73;;;5.80;99.90;;;;;;5012118;28;20436;-61
2021/12/05 03:21:16;;;;;;;3.43;2.30;;;5.70;99.90;;;;;;5013204;28;20443;-60
2021/12/05 03:23:44;;;;;;;2.83;1.40;;;5.80;99.90;;;;;;4994410;28;20423;-61
2021/12/05 03:26:14;;;;;;;2.43;1.47;;;5.80;99.90;;;;;;5013248;28;20460;-61
2021/12/05 03:28:40;;;;;;;3.13;1.73;;;5.80;99.90;;;;;;5014792;28;20996;-61
2021/12/05 03:31:06;;;;;;;4.63;1.63;;;6.00;99.90;;;;;;5015947;28;20425;-61
2021/12/05 03:33:32;;;;;;;3.40;1.33;;;6.00;99.90;;;;;;5016853;28;20438;-61
2021/12/05 03:35:58;;;;;;;2.00;1.63;;;6.10;99.90;;;;;;5017401;28;20399;-61
2021/12/05 03:38:24;;;;;;;4.13;1.73;;;5.90;99.90;;;;;;5015513;28;20451;-61
2021/12/05 03:40:50;;;;;;;2.73;1.40;;;5.90;99.90;;;;;;5017070;28;20434;-61
2021/12/05 03:43:18;;;;;;;3.73;1.40;;;6.00;99.90;;;;;;5015820;28;20183;-61
2021/12/05 03:45:51;;;;;;;3.43;1.37;;;6.00;99.90;;;;;;5017328;28;20401;-60
2021/12/05 03:48:17;;;;;;;3.70;1.77;;;5.90;99.90;;;;;;5015031;28;20466;-61
2021/12/05 03:50:44;;;;;;;5.10;2.20;;;5.80;99.90;;;;;;5016923;28;20402;-59
2021/12/05 03:53:12;;;;;;;5.03;1.87;;;5.80;99.90;;;;;;5016986;28;20434;-58
2021/12/05 03:55:40;;;;;;;3.80;1.30;;;5.60;99.90;;;;;;5011136;28;20916;-60
2021/12/05 03:58:07;;;;;;;2.40;1.63;;;5.70;99.90;;;;;;4989824;28;20967;-60
2021/12/05 04:00:38;;;;;;;2.27;1.40;;;5.70;99.90;;;;;;4996701;28;20814;-61
2021/12/05 04:03:07;;;;;;;3.30;1.57;;;5.60;99.90;;;;;;5010483;28;20818;-61
2021/12/05 04:05:34;;;;;;;3.90;2.07;;;5.60;99.90;;;;;;5015724;28;20503;-60
2021/12/05 04:08:02;;;;;;;3.27;1.60;;;5.50;99.90;;;;;;5015633;28;20814;-62
2021/12/05 04:10:28;;;;;;;5.27;1.40;;;5.50;99.90;;;;;;4998956;28;20415;-61
2021/12/05 04:12:55;;;;;;;3.03;1.50;;;5.50;99.90;;;;;;5016351;28;20775;-59
2021/12/05 04:15:22;;;;;;;5.30;1.87;;;5.50;99.90;;;;;;5015531;28;20427;-62
2021/12/05 04:17:48;;;;;;;2.57;1.57;;;5.50;99.90;;;;;;5014654;28;20955;-60
2021/12/05 04:20:15;;;;;;;3.23;1.87;;;5.50;99.90;;;;;;5016223;28;20403;-59
2021/12/05 04:22:42;;;;;;;2.70;1.27;;;5.30;99.90;;;;;;4997194;28;20441;-60
2021/12/05 04:25:11;;;;;;;5.40;1.70;;;5.40;99.90;;;;;;5016159;28;20438;-60
2021/12/05 04:27:42;;;;;;;3.63;2.07;;;5.20;99.90;;;;;;5015925;28;20455;-59
2021/12/05 04:30:11;;;;;;;4.33;1.97;;;5.20;99.90;;;;;;5015168;28;20943;-54
2021/12/05 04:32:37;;;;;;;3.30;1.30;;;5.40;99.90;;;;;;5015982;28;20410;-59
2021/12/05 04:35:03;;;;;;;3.27;1.43;;;5.50;99.90;;;;;;5016488;28;20490;-57
2021/12/05 04:37:29;;;;;;;3.33;1.67;;;5.50;99.90;;;;;;5004201;28;20240;-58
2021/12/05 04:39:55;;;;;;;4.57;2.10;;;5.50;99.90;;;;;;4997743;28;20444;-58
2021/12/05 04:42:20;;;;;;;3.43;1.60;;;5.60;99.90;;;;;;5005496;28;20608;-59
2021/12/05 04:44:46;;;;;;;2.93;1.87;;;5.60;99.90;;;;;;5016039;28;20670;-60
2021/12/05 04:47:12;;;;;;;3.40;1.80;;;5.90;99.90;;;;;;5014649;28;20213;-59
2021/12/05 04:49:40;;;;;;;2.27;1.53;;;5.80;99.90;;;;;;4998038;28;20184;-60
2021/12/05 04:52:06;;;;;;;2.47;1.27;;;6.00;99.90;;;;;;5015775;28;20175;-59
2021/12/05 04:54:32;;;;;;;2.20;1.80;;;6.10;99.90;;;;;;4996623;28;20937;-59
2021/12/05 04:56:59;;;;;;;3.20;1.53;;;6.00;99.90;;;;;;5015634;28;20440;-60
2021/12/05 04:59:26;;;;;;;6.00;1.60;;;6.00;99.90;;;;;;5005124;28;20215;-60
2021/12/05 05:01:57;;;;;;;6.27;2.00;;;5.90;99.90;;;;;;5015445;28;20433;-59
2021/12/05 05:04:26;;;;;;;2.80;1.60;;;5.80;99.90;;;;;;5014865;28;20470;-57
2021/12/05 05:06:54;;;;;;;2.43;1.50;;;5.60;99.90;;;;;;5014892;28;20419;-57
2021/12/05 05:09:20;;;;;;;1.90;1.47;;;5.70;99.90;;;;;;5015652;28;20457;-58
2021/12/05 05:11:46;;;;;;;1.63;1.27;;;5.70;99.90;;;;;;5014100;28;20427;-60
2021/12/05 05:14:14;;;;;;;1.70;1.13;;;5.50;99.90;;;;;;5014778;28;20215;-59
2021/12/05 05:16:40;;;;;;;3.13;1.33;;;5.30;99.90;;;;;;5014262;28;20598;-57
2021/12/05 05:19:06;;;;;;;2.23;1.30;;;5.30;99.90;;;;;;4997290;28;20943;-60
2021/12/05 05:29:51;;;;;;;4.10;1.37;;;5.00;99.90;;;;;;5015005;28;20512;-58
2021/12/05 05:40:54;;;;;;;3.10;1.60;;;5.00;99.90;;;;;;5014565;28;20390;-61
2021/12/05 05:43:37;;;;;;;2.00;1.10;;;5.10;99.90;;;;;;4994336;28;20431;-59
2021/12/05 05:46:10;;;;;;;3.87;1.50;;;5.10;99.90;;;;;;4995326;28;20750;-60
2021/12/05 05:48:48;;;;;;;1.73;1.60;;;5.10;99.90;;;;;;5008836;28;20474;-60
2021/12/05 05:51:14;;;;;;;3.57;1.87;;;5.10;99.90;;;;;;5013991;28;20471;-60
2021/12/05 05:53:39;;;;;;;2.40;1.30;;;4.90;99.90;;;;;;5013305;28;20513;-59
2021/12/05 05:56:11;;;;;;;4.10;1.37;;;4.90;99.90;;;;;;5014653;28;20490;-61
2021/12/05 05:58:48;;;;;;;5.00;1.50;;;4.80;99.90;;;;;;5013103;28;20206;-60
2021/12/05 06:01:41;;;;;;;1.80;1.30;;;4.80;99.90;;;;;;5009548;28;20505;-59
2021/12/05 06:04:06;;;;;;;2.87;1.30;;;4.80;99.90;;;;;;5009135;28;20438;-60
2021/12/05 06:06:32;;;;;;;1.80;1.43;;;4.70;99.90;;;;;;5014082;28;20411;-61
2021/12/05 06:08:59;;;;;;;3.10;1.67;;;4.70;99.90;;;;;;4996434;28;20467;-61
2021/12/05 06:11:26;;;;;;;4.93;2.10;;;4.60;99.90;;;;;;4996576;28;20411;-59
2021/12/05 06:13:52;;;;;;;4.40;2.20;;;4.60;99.90;;;;;;5013055;28;20794;-61
2021/12/05 06:16:19;;;;;;;2.20;1.10;;;4.70;99.90;;;;;;5014518;28;20490;-61
2021/12/05 06:18:46;;;;;;;4.07;1.50;;;4.70;99.90;;;;;;5013322;28;20450;-61
2021/12/05 06:21:12;;;;;;;2.13;1.10;;;4.70;99.90;;;;;;4996878;28;20494;-59
2021/12/05 06:23:39;;;;;;;2.90;1.47;;;4.80;99.90;;;;;;5013381;28;20459;-60
2021/12/05 06:26:08;;;;;;;2.97;1.40;;;4.60;99.90;;;;;;5014355;28;20435;-61
2021/12/05 06:28:39;;;;;;;2.87;2.10;;;4.40;99.90;;;;;;5013679;28;20579;-59
2021/12/05 06:47:02;;;;;;;6.23;1.63;;;4.60;99.90;;;;;;4992990;28;20877;-58
2021/12/05 06:49:28;;;;;;;7.20;1.70;;;4.60;99.90;;;;;;5012924;28;20536;-59
2021/12/05 06:51:53;;;;;;;5.43;1.60;;;4.60;99.90;;;;;;5013022;28;20910;-60
2021/12/05 06:54:19;;;;;;;4.80;2.13;;;4.40;99.90;;;;;;5013260;28;20705;-58
2021/12/05 06:56:45;;;;;;;2.60;1.20;;;4.40;99.90;;;;;;5013841;28;20514;-61
2021/12/05 06:59:11;;;;;;;3.87;1.50;;;4.40;99.90;;;;;;5012425;28;20213;-60
2021/12/05 07:01:37;;;;;;;3.07;1.60;;;4.50;99.90;;;;;;5013756;28;20175;-59
2021/12/05 07:04:11;;;;;;;1.70;1.30;;;4.40;99.90;;;;;;4998893;28;20411;-57
2021/12/05 07:06:40;;;;;;;2.53;1.23;;;4.40;99.90;;;;;;4997357;28;20171;-60
2021/12/05 07:09:08;;;;;;;3.63;1.53;;;4.40;99.90;;;;;;5000070;28;20819;-59
2021/12/05 07:21:48;;;;;;;2.03;1.33;;;4.80;99.90;;;;;;5017271;28;20382;-59
2021/12/05 07:24:42;;;;;;;3.43;2.17;;;4.80;99.90;;;;;;4999180;28;20490;-61
2021/12/05 07:40:20;;;;;;;3.30;1.20;;;4.80;99.90;;;;;;4997582;28;20427;-61
2021/12/05 07:40:51;;;;;;;6.83;1.87;;;4.50;99.90;;;;;;5016634;28;20783;-60
2021/12/05 07:43:17;;;;;;;4.40;1.23;;;4.70;99.90;;;;;;5016211;28;20419;-60
2021/12/05 07:45:53;;;;;;;4.07;1.30;;;4.70;99.90;;;;;;5016546;28;20399;-59
2021/12/05 07:48:23;;;;;;;2.90;1.60;;;4.80;99.90;;;;;;5016450;28;20854;-57
2021/12/05 07:51:07;;;;;;;2.30;1.47;;;4.90;99.90;;;;;;5015541;28;20430;-59
2021/12/05 07:53:50;;;;;;;3.97;1.70;;;4.90;99.90;;;;;;5017158;28;20387;-59
2021/12/05 07:56:24;;;;;;;4.80;1.37;;;4.90;99.90;;;;;;5015454;28;20795;-60
2021/12/05 08:15:20;;;;;;;1.73;1.30;;;5.00;99.90;;;;;;5015308;28;20443;-62
2021/12/05 08:17:52;;;;;;;2.10;1.70;;;4.90;99.90;;;;;;5016003;28;20431;-62
2021/12/05 08:20:23;;;;;;;1.70;1.43;;;4.90;99.90;;;;;;5014820;28;20533;-60
2021/12/05 08:22:49;;;;;;;3.23;1.70;;;4.90;99.90;;;;;;5016330;28;20418;-61
2021/12/05 08:25:16;;;;;;;1.67;1.40;;;4.80;99.90;;;;;;5016455;28;20403;-61
2021/12/05 08:27:48;;;;;;;1.33;1.23;;;4.80;99.90;;;;;;5030447;23;20557;-58
2021/12/05 08:30:23;;;;;;;1.20;1.10;;;5.00;99.90;;;;;;4997225;28;20415;-59
2021/12/05 08:35:36;;;;;;;1.97;1.17;;;5.10;99.90;;;;;;4997670;28;20768;-61
2021/12/05 08:38:55;;;;;;;5.37;1.63;;;5.00;99.90;;;;;;4996507;28;20203;-61
2021/12/05 08:46:20;;;;;;;4.20;1.40;;;5.00;99.90;;;;;;4997358;28;20404;-59
2021/12/05 10:02:36;;;;;;;2.47;1.40;;;7.50;99.90;;;;;;4995662;28;20433;-62
2021/12/05 10:10:38;;;;;;;4.03;1.20;;;7.80;99.90;;;;;;4976298;28;20946;-60
2021/12/05 10:13:16;;;;;;;4.00;1.30;;;7.70;99.90;;;;;;4974317;28;20533;-61
2021/12/05 10:16:13;;;;;;;2.70;1.10;;;7.70;99.90;;;;;;4959108;28;20934;-60
2021/12/05 10:19:27;;;;;;;2.80;1.13;;;7.60;99.90;;;;;;4958222;28;20478;-56
2021/12/05 10:37:54;;;;;;;1.77;1.20;;;8.30;99.90;;;;;;4955822;28;20786;-61
2021/12/05 10:40:33;;;;;;;2.20;1.50;;;8.40;99.90;;;;;;4940201;29;20487;-60
2021/12/05 10:42:59;;;;;;;1.97;0.90;;;8.20;99.90;;;;;;4955265;28;20424;-59
2021/12/05 10:45:31;;;;;;;4.27;1.60;;;7.90;99.90;;;;;;4976206;28;20422;-61
2021/12/05 10:47:59;;;;;;;1.27;1.00;;;8.10;99.90;;;;;;4973118;28;20464;-61
2021/12/05 10:50:39;;;;;;;2.17;1.40;;;8.10;99.90;;;;;;4976205;28;20920;-61
2021/12/05 10:53:35;;;;;;;4.00;1.30;;;8.60;99.90;;;;;;4975198;28;20404;-57
2021/12/05 10:56:12;;;;;;;2.73;1.00;;;10.30;99.90;;;;;;4976273;28;20487;-58
2021/12/05 10:58:51;;;;;;;1.93;0.90;;;12.00;99.90;;;;;;4992355;28;20449;-60
2021/12/05 11:01:25;;;;;;;1.33;0.90;;;14.00;99.90;;;;;;4995405;28;20448;-60
2021/12/05 11:04:04;;;;;;;1.90;1.30;;;14.30;96.60;;;;;;4994237;28;20421;-60
2021/12/05 11:06:33;;;;;;;4.37;1.17;;;13.90;98.10;;;;;;4977334;28;20927;-62
2021/12/05 11:09:06;;;;;;;2.03;1.00;;;15.00;95.80;;;;;;4958665;28;20468;-61
2021/12/05 11:11:32;;;;;;;1.10;1.00;;;14.50;96.30;;;;;;4958790;28;20460;-61
2021/12/05 11:14:01;;;;;;;1.70;1.13;;;15.80;94.90;;;;;;4991354;28;20431;-61
2021/12/05 11:16:36;;;;;;;2.50;1.00;;;15.90;94.10;;;;;;4956185;28;20929;-61
2021/12/05 11:19:16;;;;;;;4.60;1.10;;;15.70;92.80;;;;;;4991583;28;20444;-62
2021/12/05 11:21:47;;;;;;;1.80;0.80;;;15.20;93.70;;;;;;4978382;28;20499;-62
2021/12/05 11:24:16;;;;;;;3.33;1.20;;;13.30;95.70;;;;;;4994398;28;20432;-62
2021/12/05 11:26:44;;;;;;;2.50;1.13;;;13.20;95.90;;;;;;4995724;28;20832;-59
2021/12/05 11:29:10;;;;;;;3.07;1.60;;;13.20;97.10;;;;;;4976038;28;20472;-60
2021/12/05 11:31:37;;;;;;;2.43;1.00;;;12.40;97.10;;;;;;4978727;28;20535;-60
2021/12/05 11:34:04;;;;;;;1.63;1.10;;;11.80;98.50;;;;;;4994127;28;20425;-61
2021/12/05 11:36:37;;;;;;;1.90;1.20;;;11.00;98.90;;;;;;4995620;28;20464;-61
2021/12/05 11:39:25;;;;;;;1.60;0.80;;;11.40;99.90;;;;;;4984621;28;20957;-60
2021/12/05 11:41:51;;;;;;;3.00;1.37;;;10.60;99.90;;;;;;4958825;28;20467;-60
2021/12/05 11:44:20;;;;;;;2.60;1.10;;;9.90;99.90;;;;;;4957756;28;20834;-60
2021/12/05 11:46:46;;;;;;;1.70;1.10;;;10.10;99.90;;;;;;4966648;28;20471;-59
2021/12/05 11:49:18;;;;;;;2.70;1.60;;;10.20;99.90;;;;;;4980329;28;20495;-60
2021/12/05 11:51:49;;;;;;;1.60;1.30;;;9.80;99.90;;;;;;4981222;28;20920;-61
2021/12/05 11:54:20;;;;;;;2.23;1.83;;;9.40;99.90;;;;;;4997320;28;20444;-61
2021/12/05 11:56:58;;;;;;;3.03;1.40;;;9.30;99.90;;;;;;4980539;28;20402;-61
2021/12/05 11:59:30;;;;;;;4.20;1.60;;;9.00;99.90;;;;;;4979172;28;20441;-61
2021/12/05 12:02:19;;;;;;;1.13;1.03;;;9.10;99.90;;;;;;4962564;28;20431;-61
2021/12/05 12:05:05;;;;;;;3.43;1.63;;;9.70;99.90;;;;;;4961193;28;20496;-61
2021/12/05 12:07:46;;;;;;;2.10;1.10;;;9.70;99.90;;;;;;4978263;28;20793;-61
2021/12/05 12:10:34;;;;;;;2.80;1.43;;;9.40;99.90;;;;;;4979815;28;20407;-59
2021/12/05 12:13:09;;;;;;;1.53;1.43;;;10.50;99.90;;;;;;4996531;28;20419;-61
2021/12/05 12:15:37;;;;;;;2.30;1.43;;;11.50;99.90;;;;;;4980550;28;20407;-61
2021/12/05 12:18:17;;;;;;;1.60;1.20;;;11.70;99.90;;;;;;4980253;28;20440;-60
2021/12/05 12:20:46;;;;;;;3.70;1.60;;;11.90;99.90;;;;;;4997976;28;20396;-61
2021/12/05 12:23:15;;;;;;;1.87;1.40;;;11.70;99.90;;;;;;4978688;28;20430;-61
2021/12/05 12:25:43;;;;;;;2.23;1.40;;;10.80;99.90;;;;;;4980553;28;20444;-61
2021/12/05 12:28:10;;;;;;;2.33;1.43;;;10.50;99.90;;;;;;4979007;28;21287;-60
2021/12/05 12:30:40;;;;;;;3.10;1.00;;;10.30;99.90;;;;;;4997464;28;20386;-59
2021/12/05 12:33:13;;;;;;;1.80;1.60;;;9.90;99.90;;;;;;4979416;28;20409;-59
2021/12/05 12:35:39;;;;;;;1.13;1.00;;;9.70;99.90;;;;;;4980189;28;20499;-60
2021/12/05 12:38:08;;;;;;;0.80;0.80;;;9.90;99.90;;;;;;4980050;28;20432;-61
2021/12/05 12:40:39;;;;;;;1.30;1.20;;;10.00;99.90;;;;;;4996780;28;20834;-61
2021/12/05 12:43:07;;;;;;;2.20;1.30;;;10.00;99.90;;;;;;4964542;28;20423;-61
2021/12/05 12:45:39;;;;;;;1.60;1.00;;;9.60;99.90;;;;;;4978894;28;20859;-61
2021/12/05 12:48:12;;;;;;;3.20;1.07;;;9.40;99.90;;;;;;4980039;28;20459;-60
2021/12/05 12:50:53;;;;;;;1.83;1.00;;;9.50;99.90;;;;;;4996018;28;20416;-61
2021/12/05 12:53:37;;;;;;;2.37;0.97;;;9.40;99.90;;;;;;4979985;28;20415;-59
2021/12/05 12:56:10;;;;;;;0.90;0.70;;;9.70;99.90;;;;;;4977670;28;20937;-59
2021/12/05 12:58:42;;;;;;;1.87;1.13;;;9.70;99.90;;;;;;4996905;28;20501;-60
2021/12/05 13:01:39;;;;;;;1.37;1.10;;;9.90;99.90;;;;;;4995701;28;20422;-61
2021/12/05 13:12:41;;;;;;;1.60;0.93;;;9.50;99.90;;;;;;4978246;28;20421;-60
2021/12/05 13:15:16;;;;;;;3.47;1.53;;;9.50;99.90;;;;;;4975318;28;20416;-59
2021/12/05 13:17:45;;;;;;;1.03;0.83;;;9.40;99.90;;;;;;4976261;28;20400;-61
2021/12/05 13:20:15;;;;;;;3.93;1.33;;;8.90;99.90;;;;;;4979828;28;20498;-60
2021/12/05 13:23:05;;;;;;;1.63;1.37;;;8.90;99.90;;;;;;4997057;28;20398;-60
2021/12/05 13:25:54;;;;;;;1.53;1.07;;;8.70;99.90;;;;;;4995410;28;20415;-62
2021/12/05 13:28:33;;;;;;;1.87;1.43;;;8.50;99.90;;;;;;4965364;28;20466;-61
2021/12/05 13:31:20;;;;;;;5.83;3.87;;;8.30;99.90;;;;;;4977921;28;20427;-61
2021/12/05 13:33:46;;;;;;;1.27;0.90;;;8.20;99.90;;;;;;4996799;28;20781;-60
2021/12/05 13:36:37;;;;;;;0.90;0.70;;;8.10;99.90;;;;;;4976808;28;21456;-62
2021/12/05 13:39:23;;;;;;;1.80;1.20;;;8.30;99.90;;;;;;4996797;28;20211;-59
2021/12/05 13:42:21;;;;;;;4.47;3.10;;;8.20;99.90;;;;;;4976927;28;20435;-60
2021/12/05 13:45:17;;;;;;;7.50;5.00;;;8.30;99.90;;;;;;4957432;28;20779;-58
2021/12/05 13:48:10;;;;;;;3.50;2.40;;;8.40;99.90;;;;;;4977611;28;20457;-56
2021/12/05 13:50:49;;;;;;;1.23;1.13;;;8.30;99.90;;;;;;4973510;28;20423;-61
2021/12/05 13:53:18;;;;;;;4.30;2.80;;;7.90;99.90;;;;;;4980332;28;20415;-61
2021/12/05 13:56:05;;;;;;;6.00;4.23;;;8.00;99.90;;;;;;4983502;28;20434;-61
2021/12/05 13:58:44;;;;;;;15.30;10.97;;;8.20;99.90;;;;;;5002110;28;20472;-60
2021/12/05 14:01:29;;;;;;;3.20;2.20;;;8.30;99.90;;;;;;5002192;28;20427;-59
2021/12/05 14:04:18;;;;;;;4.80;3.90;;;8.10;99.90;;;;;;4983865;28;20929;-60
2021/12/05 14:06:52;;;;;;;6.07;3.90;;;8.10;99.90;;;;;;4979813;28;20469;-60
2021/12/05 14:09:24;;;;;;;2.03;1.50;;;8.20;99.90;;;;;;4997332;28;20474;-61
2021/12/05 14:12:29;;;;;;;1.63;1.10;;;8.10;99.90;;;;;;4995126;28;20430;-61
2021/12/05 14:15:00;;;;;;;1.17;1.07;;;7.90;99.90;;;;;;4996070;28;20386;-59
2021/12/05 14:17:33;;;;;;;1.23;1.00;;;7.50;99.90;;;;;;4994872;28;20425;-60
2021/12/05 14:20:00;;;;;;;1.80;1.20;;;7.40;99.90;;;;;;4996310;28;20796;-60
2021/12/05 14:22:31;;;;;;;1.47;1.07;;;7.30;99.90;;;;;;4995238;28;20430;-60
2021/12/05 14:24:59;;;;;;;2.10;1.20;;;7.30;99.90;;;;;;4997248;28;20787;-58
2021/12/05 14:27:32;;;;;;;2.10;1.30;;;7.10;99.90;;;;;;4995453;28;20895;-60
2021/12/05 14:29:58;;;;;;;2.00;1.43;;;7.00;99.90;;;;;;5025627;23;20512;-60
2021/12/05 14:32:35;;;;;;;3.50;1.90;;;7.00;99.90;;;;;;4994416;28;20526;-61
2021/12/05 14:35:24;;;;;;;3.70;2.50;;;7.20;99.90;;;;;;4996139;28;20761;-61
2021/12/05 14:37:52;;;;;;;2.33;2.13;;;7.10;99.90;;;;;;4994255;28;20436;-61
2021/12/05 14:40:25;;;;;;;2.77;2.50;;;7.10;99.90;;;;;;5002307;28;20518;-63
2021/12/05 14:42:51;;;;;;;4.33;3.07;;;7.10;99.90;;;;;;5028452;28;20404;-63
2021/12/05 14:45:23;;;;;;;8.87;5.67;;;7.00;99.90;;;;;;5021620;28;20924;-62
2021/12/05 14:47:52;;;;;;;4.80;3.40;;;6.90;99.90;;;;;;4997127;28;20774;-59
2021/12/05 14:50:17;;;;;;;5.30;3.60;;;7.10;99.90;;;;;;5012774;28;20450;-61
2021/12/05 14:52:49;;;;;;;5.27;3.63;;;7.10;99.90;;;;;;4995727;28;20784;-59
2021/12/05 14:55:18;;;;;;;5.00;3.40;;;7.10;99.90;;;;;;5013161;28;20535;-60
2021/12/05 14:57:53;;;;;;;5.30;3.60;;;7.10;99.90;;;;;;4995708;28;20466;-60
2021/12/05 15:00:30;;;;;;;5.40;3.27;;;7.10;99.90;;;;;;5012980;28;20443;-61
2021/12/05 15:03:13;;;;;;;4.60;2.10;;;7.10;99.90;;;;;;4980307;28;20426;-61
2021/12/05 15:05:41;;;;;;;4.67;3.37;;;7.20;99.90;;;;;;5013236;28;20418;-62
2021/12/05 15:08:12;;;;;;;7.33;3.13;;;7.10;99.90;;;;;;4995576;28;20538;-60
2021/12/05 15:10:43;;;;;;;6.70;4.07;;;6.90;99.90;;;;;;4994907;28;20767;-61
2021/12/05 15:13:10;;;;;;;4.57;3.27;;;6.90;99.90;;;;;;4989191;28;20398;-61
2021/12/05 15:15:36;;;;;;;4.40;2.97;;;6.90;99.90;;;;;;4976919;28;20914;-62
2021/12/05 15:18:03;;;;;;;3.13;2.93;;;7.10;99.90;;;;;;4995627;28;20416;-62
2021/12/05 15:20:32;;;;;;;3.20;3.00;;;7.10;99.90;;;;;;4996006;28;20808;-62
2021/12/05 15:23:10;;;;;;;4.10;3.30;;;7.20;99.90;;;;;;4976404;28;20851;-62
2021/12/05 15:25:37;;;;;;;3.83;3.00;;;7.30;99.90;;;;;;4964153;28;20425;-62
2021/12/05 15:28:04;;;;;;;4.80;3.07;;;7.20;99.90;;;;;;5008322;28;20523;-62
2021/12/05 15:30:39;;;;;;;3.07;2.63;;;7.30;99.90;;;;;;4983249;28;20794;-61
2021/12/05 15:33:07;;;;;;;3.07;2.80;;;7.20;99.90;;;;;;4999303;28;20426;-62
2021/12/05 15:35:34;;;;;;;2.80;2.60;;;7.10;99.90;;;;;;5016917;28;20440;-62
2021/12/05 15:38:23;;;;;;;5.33;2.27;;;6.90;99.90;;;;;;5015611;28;20977;-61
2021/12/05 15:40:52;;;;;;;3.00;2.33;;;6.80;99.90;;;;;;4999711;28;20402;-63
2021/12/05 15:43:21;;;;;;;2.90;2.70;;;6.70;99.90;;;;;;4998111;28;20424;-62
2021/12/05 15:45:50;;;;;;;3.97;3.50;;;6.70;99.90;;;;;;4999648;28;20501;-61
2021/12/05 15:48:47;;;;;;;5.60;4.30;;;6.60;99.90;;;;;;4981985;28;20454;-62
2021/12/05 15:51:13;;;;;;;3.57;3.27;;;6.60;99.90;;;;;;5008530;28;20927;-61
2021/12/05 15:53:40;;;;;;;2.97;2.70;;;6.60;99.90;;;;;;5017027;28;20541;-62
2021/12/05 15:56:10;;;;;;;3.77;2.63;;;6.60;99.90;;;;;;5017652;28;20398;-62
2021/12/05 15:58:44;;;;;;;3.77;3.47;;;6.50;99.90;;;;;;4998491;28;20438;-61
2021/12/05 16:01:21;;;;;;;5.07;2.80;;;6.40;99.90;;;;;;5016903;28;20481;-62
2021/12/05 16:04:18;;;;;;;3.17;2.70;;;6.30;99.90;;;;;;4998390;28;20426;-61
2021/12/05 16:06:43;;;;;;;6.00;2.90;;;6.20;99.90;;;;;;5016962;28;20400;-61
2021/12/05 16:09:16;;;;;;;5.17;3.97;;;6.20;99.90;;;;;;5015367;28;20473;-60
2021/12/05 16:11:42;;;;;;;6.47;4.03;;;6.20;99.90;;;;;;4998354;28;20149;-63
2021/12/05 16:14:08;;;;;;;5.40;3.37;;;6.20;99.90;;;;;;4997950;28;20423;-62
2021/12/05 16:16:35;;;;;;;3.10;2.73;;;6.20;99.90;;;;;;4998264;28;20407;-62
2021/12/05 16:19:07;;;;;;;8.27;5.60;;;6.20;99.90;;;;;;4981016;28;20202;-59
2021/12/05 16:21:36;;;;;;;21.13;14.70;;;6.20;99.90;;;;;;4983146;28;20854;-61
2021/12/05 16:24:10;;;;;;;18.37;13.80;;;6.10;99.90;;;;;;5015611;28;20445;-62
2021/12/05 16:26:37;;;;;;;12.67;9.20;;;6.10;99.90;;;;;;5015586;28;20433;-62
2021/12/05 16:29:09;;;;;;;6.40;5.33;;;6.20;99.90;;;;;;4997717;28;20470;-62
2021/12/05 16:31:41;;;;;;;5.10;3.40;;;6.30;99.90;;;;;;4997851;28;20412;-60
2021/12/05 16:34:12;;;;;;;5.00;3.60;;;6.30;99.90;;;;;;4997512;28;20462;-61
2021/12/05 16:37:05;;;;;;;4.67;4.27;;;6.30;99.90;;;;;;4998151;28;20387;-59
2021/12/05 16:39:40;;;;;;;5.00;4.50;;;6.40;99.90;;;;;;4999110;28;20453;-62
2021/12/05 16:42:19;;;;;;;11.50;4.97;;;6.30;99.90;;;;;;4998238;28;20383;-61
2021/12/05 16:44:57;;;;;;;5.43;4.83;;;6.30;99.90;;;;;;4997010;28;20415;-61
2021/12/05 16:47:27;;;;;;;4.40;4.00;;;6.30;99.90;;;;;;4982578;28;21045;-62
2021/12/05 16:49:55;;;;;;;4.70;3.73;;;6.30;99.90;;;;;;5014542;28;20839;-62
2021/12/05 16:52:24;;;;;;;7.60;5.70;;;6.40;99.90;;;;;;4998011;28;20427;-60
2021/12/05 16:55:19;;;;;;;14.60;12.57;;;6.30;99.90;;;;;;4997361;28;20422;-62
2021/12/05 16:57:56;;;;;;;12.90;9.67;;;6.20;99.90;;;;;;4999541;28;20391;-62
2021/12/05 17:00:28;;;;;;;13.20;7.87;;;6.20;99.90;;;;;;4997965;28;20450;-62
2021/12/05 17:02:59;;;;;;;10.30;5.37;;;6.20;99.90;;;;;;4998045;28;20797;-62
2021/12/05 17:05:32;;;;;;;5.30;4.80;;;6.20;99.90;;;;;;4981043;28;20450;-62
2021/12/05 17:08:22;;;;;;;10.60;9.50;;;6.10;99.90;;;;;;4980977;28;20449;-61
2021/12/05 17:10:59;;;;;;;14.23;12.83;;;6.10;99.90;;;;;;4998050;28;20554;-61
2021/12/05 17:13:37;;;;;;;9.80;7.17;;;6.20;99.90;;;;;;5014223;28;20426;-60
2021/12/05 17:16:20;;;;;;;6.77;5.47;;;6.30;99.90;;;;;;4997341;28;20830;-61
2021/12/05 17:19:04;;;;;;;7.23;6.43;;;6.30;99.90;;;;;;4997133;28;20525;-60
2021/12/05 17:21:38;;;;;;;8.93;7.33;;;6.30;99.90;;;;;;4998419;28;20411;-60
2021/12/05 17:24:20;;;;;;;7.40;5.93;;;6.30;99.90;;;;;;4996916;28;20426;-61
2021/12/05 17:26:50;;;;;;;10.03;6.37;;;6.10;99.90;;;;;;4999059;28;20904;-59
2021/12/05 17:29:18;;;;;;;6.47;5.50;;;6.00;99.90;;;;;;5014256;28;20466;-59
2021/12/05 17:31:59;;;;;;;10.57;9.53;;;5.80;99.90;;;;;;5008926;28;20966;-58
2021/12/05 17:34:29;;;;;;;9.23;8.33;;;5.80;99.90;;;;;;5001759;28;20411;-60
2021/12/05 17:36:58;;;;;;;6.00;5.40;;;5.80;99.90;;;;;;4997704;28;20418;-59
2021/12/05 17:39:28;;;;;;;5.60;5.10;;;5.80;99.90;;;;;;4997521;28;20431;-61
2021/12/05 17:41:58;;;;;;;5.60;5.00;;;5.80;99.90;;;;;;4979570;28;20404;-57
2021/12/05 17:44:24;;;;;;;4.23;3.83;;;5.70;99.90;;;;;;4977355;28;20400;-57
2021/12/05 17:46:52;;;;;;;5.77;5.27;;;5.70;99.90;;;;;;5012495;28;20541;-60
2021/12/05 17:49:20;;;;;;;5.53;4.90;;;5.70;99.90;;;;;;4997170;28;20504;-60
2021/12/05 17:51:46;;;;;;;9.53;6.57;;;5.70;99.90;;;;;;4995558;28;20426;-62
2021/12/05 17:54:26;;;;;;;5.80;4.33;;;5.60;99.90;;;;;;5014431;28;20454;-58
2021/12/05 17:56:54;;;;;;;5.80;5.20;;;5.50;99.90;;;;;;4997611;28;20774;-61
2021/12/05 17:59:28;;;;;;;6.57;5.17;;;5.50;99.90;;;;;;5013999;28;20585;-58
2021/12/05 18:05:10;;;;;;;5.50;4.90;;;5.40;99.90;;;;;;4972220;28;21000;-61
2021/12/05 18:07:36;;;;;;;7.03;5.33;;;5.40;99.90;;;;;;4956632;28;20492;-59
2021/12/05 18:10:03;;;;;;;8.30;6.23;;;5.40;99.90;;;;;;4990933;28;20454;-61
2021/12/05 18:12:36;;;;;;;7.30;6.60;;;5.40;99.90;;;;;;4997484;28;20179;-60
2021/12/05 18:15:11;;;;;;;4.77;4.03;;;5.40;99.90;;;;;;4998149;28;20799;-61
2021/12/05 18:17:37;;;;;;;6.33;5.73;;;5.30;99.90;;;;;;5013296;28;20426;-62
2021/12/05 18:20:05;;;;;;;4.30;3.90;;;5.20;99.90;;;;;;4980361;28;20434;-62
2021/12/05 18:22:31;;;;;;;4.17;3.70;;;5.20;99.90;;;;;;4995381;28;20171;-62
2021/12/05 18:24:57;;;;;;;7.33;6.50;;;5.20;99.90;;;;;;4997599;28;20420;-62
2021/12/05 18:27:23;;;;;;;6.80;4.70;;;5.20;99.90;;;;;;4997272;28;20454;-62
2021/12/05 18:29:48;;;;;;;8.70;7.90;;;5.10;99.90;;;;;;4995000;28;20557;-61